sensor_id;sensor_type;location;lat;lon;timestamp;pressure;altitude;pressure_sealevel;temperature;humidity
13041;BME280;6587;42.728;23.288;2024-01-30T00:01:31;97345.56;;;-1.12;65.91
13041;BME280;6587;42.728;23.288;2024-01-30T00:03:58;97341.91;;;-1.06;65.50
13041;BME280;6587;42.728;23.288;2024-01-30T00:06:26;97345.81;;;-1.14;65.61
13041;BME280;6587;42.728;23.288;2024-01-30T00:08:53;97347.91;;;-1.21;66.20
13041;BME280;6587;42.728;23.288;2024-01-30T00:11:20;97343.34;;;-1.45;67.16
13041;BME280;6587;42.728;23.288;2024-01-30T00:13:47;97347.25;;;-1.48;67.37
13041;BME280;6587;42.728;23.288;2024-01-30T00:16:20;97346.53;;;-1.33;67.30
13041;BME280;6587;42.728;23.288;2024-01-30T00:18:48;97353.13;;;-1.16;66.85
13041;BME280;6587;42.728;23.288;2024-01-30T00:21:15;97353.19;;;-1.01;65.78
13041;BME280;6587;42.728;23.288;2024-01-30T00:23:43;97346.34;;;-1.17;66.09
13041;BME280;6587;42.728;23.288;2024-01-30T00:26:11;97344.28;;;-1.10;66.38
13041;BME280;6587;42.728;23.288;2024-01-30T00:28:40;97345.03;;;-1.19;66.35
13041;BME280;6587;42.728;23.288;2024-01-30T00:31:07;97351.03;;;-1.14;66.02
13041;BME280;6587;42.728;23.288;2024-01-30T00:33:37;97349.50;;;-1.05;65.83
13041;BME280;6587;42.728;23.288;2024-01-30T00:36:05;97355.41;;;-1.34;66.68
13041;BME280;6587;42.728;23.288;2024-01-30T00:38:32;97352.97;;;-1.56;68.28
13041;BME280;6587;42.728;23.288;2024-01-30T00:41:00;97345.69;;;-1.44;67.85
13041;BME280;6587;42.728;23.288;2024-01-30T00:43:29;97356.94;;;-1.43;67.87
13041;BME280;6587;42.728;23.288;2024-01-30T00:45:57;97357.69;;;-1.53;68.37
13041;BME280;6587;42.728;23.288;2024-01-30T00:48:23;97347.38;;;-1.18;67.28
13041;BME280;6587;42.728;23.288;2024-01-30T00:50:50;97349.16;;;-1.33;67.07
13041;BME280;6587;42.728;23.288;2024-01-30T00:53:17;97351.94;;;-1.50;67.32
13041;BME280;6587;42.728;23.288;2024-01-30T00:55:44;97350.75;;;-1.79;69.08
13041;BME280;6587;42.728;23.288;2024-01-30T00:58:12;97352.78;;;-1.44;68.66
13041;BME280;6587;42.728;23.288;2024-01-30T01:03:21;97347.00;;;-1.98;69.17
13041;BME280;6587;42.728;23.288;2024-01-30T01:05:48;97348.28;;;-1.96;69.07
13041;BME280;6587;42.728;23.288;2024-01-30T01:08:16;97348.09;;;-1.89;69.19
13041;BME280;6587;42.728;23.288;2024-01-30T01:10:43;97349.00;;;-1.64;68.16
13041;BME280;6587;42.728;23.288;2024-01-30T01:13:12;97344.69;;;-1.43;67.81
13041;BME280;6587;42.728;23.288;2024-01-30T01:15:38;97344.16;;;-1.40;67.31
13041;BME280;6587;42.728;23.288;2024-01-30T01:18:05;97345.63;;;-1.64;67.14
13041;BME280;6587;42.728;23.288;2024-01-30T01:20:32;97350.38;;;-1.51;66.90
13041;BME280;6587;42.728;23.288;2024-01-30T01:22:59;97344.06;;;-1.65;67.02
13041;BME280;6587;42.728;23.288;2024-01-30T01:25:26;97344.56;;;-1.68;67.27
13041;BME280;6587;42.728;23.288;2024-01-30T01:27:53;97347.13;;;-1.73;67.47
13041;BME280;6587;42.728;23.288;2024-01-30T01:30:21;97347.47;;;-1.65;67.05
13041;BME280;6587;42.728;23.288;2024-01-30T01:32:48;97338.13;;;-1.45;66.29
13041;BME280;6587;42.728;23.288;2024-01-30T01:35:21;97341.53;;;-1.45;65.89
13041;BME280;6587;42.728;23.288;2024-01-30T01:37:48;97351.72;;;-1.43;65.92
13041;BME280;6587;42.728;23.288;2024-01-30T01:40:21;97346.19;;;-1.57;66.54
13041;BME280;6587;42.728;23.288;2024-01-30T01:42:49;97349.28;;;-1.65;66.39
13041;BME280;6587;42.728;23.288;2024-01-30T01:45:16;97343.59;;;-1.52;66.40
13041;BME280;6587;42.728;23.288;2024-01-30T01:47:46;97350.66;;;-1.47;66.01
13041;BME280;6587;42.728;23.288;2024-01-30T01:50:15;97344.34;;;-1.57;66.66
13041;BME280;6587;42.728;23.288;2024-01-30T01:52:44;97341.00;;;-1.47;66.25
13041;BME280;6587;42.728;23.288;2024-01-30T01:55:12;97343.09;;;-1.49;66.21
13041;BME280;6587;42.728;23.288;2024-01-30T01:57:40;97343.63;;;-1.42;66.27
13041;BME280;6587;42.728;23.288;2024-01-30T02:00:09;97348.28;;;-1.54;66.42
13041;BME280;6587;42.728;23.288;2024-01-30T02:02:39;97355.31;;;-1.54;66.70
13041;BME280;6587;42.728;23.288;2024-01-30T02:05:08;97354.03;;;-1.52;66.47
13041;BME280;6587;42.728;23.288;2024-01-30T02:07:34;97350.16;;;-1.44;66.68
13041;BME280;6587;42.728;23.288;2024-01-30T02:10:02;97350.72;;;-1.32;66.94
13041;BME280;6587;42.728;23.288;2024-01-30T02:12:29;97350.00;;;-1.18;65.92
13041;BME280;6587;42.728;23.288;2024-01-30T02:14:56;97353.56;;;-1.39;66.49
13041;BME280;6587;42.728;23.288;2024-01-30T02:17:25;97359.28;;;-1.52;66.73
13041;BME280;6587;42.728;23.288;2024-01-30T02:19:52;97354.06;;;-1.42;66.97
13041;BME280;6587;42.728;23.288;2024-01-30T02:22:21;97352.03;;;-1.30;66.68
13041;BME280;6587;42.728;23.288;2024-01-30T02:24:48;97353.56;;;-1.39;66.79
13041;BME280;6587;42.728;23.288;2024-01-30T02:27:15;97349.41;;;-1.35;66.24
13041;BME280;6587;42.728;23.288;2024-01-30T02:29:42;97349.69;;;-1.26;65.90
13041;BME280;6587;42.728;23.288;2024-01-30T02:32:09;97347.31;;;-1.33;65.95
13041;BME280;6587;42.728;23.288;2024-01-30T02:34:36;97346.78;;;-1.40;66.09
13041;BME280;6587;42.728;23.288;2024-01-30T02:37:03;97343.13;;;-1.39;65.86
13041;BME280;6587;42.728;23.288;2024-01-30T02:39:31;97342.13;;;-1.28;65.13
13041;BME280;6587;42.728;23.288;2024-01-30T02:41:58;97337.97;;;-1.19;65.10
13041;BME280;6587;42.728;23.288;2024-01-30T02:44:25;97344.72;;;-1.28;64.95
13041;BME280;6587;42.728;23.288;2024-01-30T02:46:52;97348.16;;;-1.12;64.69
13041;BME280;6587;42.728;23.288;2024-01-30T02:49:20;97339.81;;;-1.14;64.28
13041;BME280;6587;42.728;23.288;2024-01-30T02:51:47;97346.84;;;-1.20;64.52
13041;BME280;6587;42.728;23.288;2024-01-30T02:54:14;97349.47;;;-1.20;64.45
13041;BME280;6587;42.728;23.288;2024-01-30T02:56:42;97345.28;;;-1.16;63.87
13041;BME280;6587;42.728;23.288;2024-01-30T02:59:09;97348.41;;;-1.19;63.83
13041;BME280;6587;42.728;23.288;2024-01-30T03:01:42;97341.66;;;-1.15;63.39
13041;BME280;6587;42.728;23.288;2024-01-30T03:04:09;97346.81;;;-1.25;63.37
13041;BME280;6587;42.728;23.288;2024-01-30T03:06:36;97335.94;;;-1.07;63.49
13041;BME280;6587;42.728;23.288;2024-01-30T03:09:03;97341.69;;;-1.00;62.47
13041;BME280;6587;42.728;23.288;2024-01-30T03:11:30;97340.91;;;-0.90;62.75
13041;BME280;6587;42.728;23.288;2024-01-30T03:13:59;97336.44;;;-1.10;62.27
13041;BME280;6587;42.728;23.288;2024-01-30T03:16:26;97336.16;;;-1.03;62.25
13041;BME280;6587;42.728;23.288;2024-01-30T03:18:52;97328.88;;;-1.01;62.63
13041;BME280;6587;42.728;23.288;2024-01-30T03:21:19;97340.66;;;-0.99;62.12
13041;BME280;6587;42.728;23.288;2024-01-30T03:23:47;97333.31;;;-1.07;61.75
13041;BME280;6587;42.728;23.288;2024-01-30T03:26:14;97331.72;;;-1.13;61.75
13041;BME280;6587;42.728;23.288;2024-01-30T03:28:40;97334.84;;;-1.11;62.29
13041;BME280;6587;42.728;23.288;2024-01-30T03:31:09;97330.38;;;-1.20;62.13
13041;BME280;6587;42.728;23.288;2024-01-30T03:33:36;97322.03;;;-1.22;61.88
13041;BME280;6587;42.728;23.288;2024-01-30T03:36:05;97328.03;;;-1.27;62.06
13041;BME280;6587;42.728;23.288;2024-01-30T03:38:31;97315.97;;;-1.33;62.38
13041;BME280;6587;42.728;23.288;2024-01-30T03:40:59;97319.41;;;-1.27;61.69
13041;BME280;6587;42.728;23.288;2024-01-30T03:43:26;97325.16;;;-1.25;61.56
13041;BME280;6587;42.728;23.288;2024-01-30T03:45:53;97315.47;;;-1.35;62.02
13041;BME280;6587;42.728;23.288;2024-01-30T03:48:21;97319.88;;;-1.40;62.53
13041;BME280;6587;42.728;23.288;2024-01-30T03:50:48;97321.69;;;-1.46;62.56
13041;BME280;6587;42.728;23.288;2024-01-30T03:53:15;97316.47;;;-1.36;62.09
13041;BME280;6587;42.728;23.288;2024-01-30T03:55:42;97320.69;;;-1.25;62.28
13041;BME280;6587;42.728;23.288;2024-01-30T03:58:09;97318.09;;;-1.25;62.16
13041;BME280;6587;42.728;23.288;2024-01-30T04:00:36;97317.56;;;-1.22;61.26
13041;BME280;6587;42.728;23.288;2024-01-30T04:03:03;97317.03;;;-1.34;61.58
13041;BME280;6587;42.728;23.288;2024-01-30T04:05:31;97316.47;;;-1.36;61.73
13041;BME280;6587;42.728;23.288;2024-01-30T04:07:58;97319.56;;;-1.54;62.16
13041;BME280;6587;42.728;23.288;2024-01-30T04:10:25;97317.47;;;-1.47;62.48
13041;BME280;6587;42.728;23.288;2024-01-30T04:12:52;97313.81;;;-1.56;61.63
13041;BME280;6587;42.728;23.288;2024-01-30T04:15:19;97315.91;;;-1.53;61.92
13041;BME280;6587;42.728;23.288;2024-01-30T04:17:46;97314.88;;;-1.52;62.14
13041;BME280;6587;42.728;23.288;2024-01-30T04:20:14;97311.75;;;-1.49;61.75
13041;BME280;6587;42.728;23.288;2024-01-30T04:22:43;97313.25;;;-1.58;62.17
13041;BME280;6587;42.728;23.288;2024-01-30T04:25:11;97319.00;;;-1.66;62.67
13041;BME280;6587;42.728;23.288;2024-01-30T04:27:38;97321.34;;;-1.60;62.86
13041;BME280;6587;42.728;23.288;2024-01-30T04:30:06;97328.41;;;-1.55;62.42
13041;BME280;6587;42.728;23.288;2024-01-30T04:32:33;97327.94;;;-1.52;62.69
13041;BME280;6587;42.728;23.288;2024-01-30T04:34:59;97332.09;;;-1.51;62.77
13041;BME280;6587;42.728;23.288;2024-01-30T04:37:26;97330.03;;;-1.44;62.57
13041;BME280;6587;42.728;23.288;2024-01-30T04:39:55;97332.13;;;-1.46;62.16
13041;BME280;6587;42.728;23.288;2024-01-30T04:42:21;97328.69;;;-1.51;62.32
13041;BME280;6587;42.728;23.288;2024-01-30T04:44:49;97334.50;;;-1.44;62.26
13041;BME280;6587;42.728;23.288;2024-01-30T04:47:16;97334.78;;;-1.36;62.88
13041;BME280;6587;42.728;23.288;2024-01-30T04:49:43;97335.28;;;-1.39;62.37
13041;BME280;6587;42.728;23.288;2024-01-30T04:52:10;97350.19;;;-1.34;62.46
13041;BME280;6587;42.728;23.288;2024-01-30T04:54:37;97349.44;;;-1.25;61.94
13041;BME280;6587;42.728;23.288;2024-01-30T04:57:05;97350.50;;;-1.21;62.02
13041;BME280;6587;42.728;23.288;2024-01-30T04:59:35;97349.19;;;-1.28;62.57
13041;BME280;6587;42.728;23.288;2024-01-30T05:02:02;97350.44;;;-1.41;62.94
13041;BME280;6587;42.728;23.288;2024-01-30T05:04:29;97352.22;;;-1.46;62.73
13041;BME280;6587;42.728;23.288;2024-01-30T05:06:56;97351.22;;;-1.40;62.77
13041;BME280;6587;42.728;23.288;2024-01-30T05:09:23;97356.84;;;-1.64;63.18
13041;BME280;6587;42.728;23.288;2024-01-30T05:11:49;97359.66;;;-1.75;63.49
13041;BME280;6587;42.728;23.288;2024-01-30T05:14:17;97360.75;;;-1.66;63.51
13041;BME280;6587;42.728;23.288;2024-01-30T05:16:45;97355.00;;;-1.68;63.80
13041;BME280;6587;42.728;23.288;2024-01-30T05:19:12;97357.00;;;-1.80;64.02
13041;BME280;6587;42.728;23.288;2024-01-30T05:21:39;97359.13;;;-1.72;63.34
13041;BME280;6587;42.728;23.288;2024-01-30T05:24:06;97361.25;;;-1.74;63.30
13041;BME280;6587;42.728;23.288;2024-01-30T05:26:35;97357.56;;;-1.73;63.42
13041;BME280;6587;42.728;23.288;2024-01-30T05:29:04;97367.72;;;-1.77;63.14
13041;BME280;6587;42.728;23.288;2024-01-30T05:31:33;97365.53;;;-1.95;63.65
13041;BME280;6587;42.728;23.288;2024-01-30T05:34:00;97365.72;;;-2.06;64.50
13041;BME280;6587;42.728;23.288;2024-01-30T05:36:27;97361.59;;;-1.97;64.20
13041;BME280;6587;42.728;23.288;2024-01-30T05:38:54;97352.75;;;-1.96;64.25
13041;BME280;6587;42.728;23.288;2024-01-30T05:41:20;97355.63;;;-1.98;63.87
13041;BME280;6587;42.728;23.288;2024-01-30T05:43:47;97361.03;;;-2.04;64.21
13041;BME280;6587;42.728;23.288;2024-01-30T05:46:14;97358.47;;;-1.99;64.35
13041;BME280;6587;42.728;23.288;2024-01-30T05:48:42;97356.63;;;-1.99;64.21
13041;BME280;6587;42.728;23.288;2024-01-30T05:51:09;97357.47;;;-1.93;63.87
13041;BME280;6587;42.728;23.288;2024-01-30T05:53:36;97359.53;;;-1.95;63.91
13041;BME280;6587;42.728;23.288;2024-01-30T05:56:04;97351.75;;;-1.90;63.81
13041;BME280;6587;42.728;23.288;2024-01-30T05:58:31;97362.22;;;-1.85;63.75
13041;BME280;6587;42.728;23.288;2024-01-30T06:00:58;97354.84;;;-1.93;63.73
13041;BME280;6587;42.728;23.288;2024-01-30T06:03:25;97366.59;;;-1.91;63.79
13041;BME280;6587;42.728;23.288;2024-01-30T06:05:53;97371.00;;;-1.96;64.08
13041;BME280;6587;42.728;23.288;2024-01-30T06:08:20;97373.16;;;-1.83;63.66
13041;BME280;6587;42.728;23.288;2024-01-30T06:10:46;97366.69;;;-1.81;63.51
13041;BME280;6587;42.728;23.288;2024-01-30T06:13:14;97371.38;;;-1.78;62.96
13041;BME280;6587;42.728;23.288;2024-01-30T06:15:40;97373.28;;;-1.68;62.69
13041;BME280;6587;42.728;23.288;2024-01-30T06:18:07;97364.06;;;-1.81;62.51
13041;BME280;6587;42.728;23.288;2024-01-30T06:20:34;97370.88;;;-1.75;62.44
13041;BME280;6587;42.728;23.288;2024-01-30T06:23:02;97372.44;;;-1.79;62.52
13041;BME280;6587;42.728;23.288;2024-01-30T06:25:29;97359.44;;;-1.69;62.07
13041;BME280;6587;42.728;23.288;2024-01-30T06:27:56;97368.84;;;-1.63;62.05
13041;BME280;6587;42.728;23.288;2024-01-30T06:30:23;97363.69;;;-1.52;61.95
13041;BME280;6587;42.728;23.288;2024-01-30T06:32:49;97368.91;;;-1.52;61.92
13041;BME280;6587;42.728;23.288;2024-01-30T06:35:16;97365.50;;;-1.53;61.81
13041;BME280;6587;42.728;23.288;2024-01-30T06:37:44;97364.22;;;-1.45;61.26
13041;BME280;6587;42.728;23.288;2024-01-30T06:40:12;97375.03;;;-1.32;61.36
13041;BME280;6587;42.728;23.288;2024-01-30T06:42:39;97364.28;;;-1.35;61.29
13041;BME280;6587;42.728;23.288;2024-01-30T06:45:07;97364.56;;;-1.32;61.34
13041;BME280;6587;42.728;23.288;2024-01-30T06:47:34;97368.53;;;-1.19;60.96
13041;BME280;6587;42.728;23.288;2024-01-30T06:50:01;97362.56;;;-1.05;60.01
13041;BME280;6587;42.728;23.288;2024-01-30T06:52:29;97368.59;;;-0.99;60.43
13041;BME280;6587;42.728;23.288;2024-01-30T06:54:55;97372.25;;;-0.95;59.95
13041;BME280;6587;42.728;23.288;2024-01-30T06:57:24;97368.59;;;-0.99;59.93
13041;BME280;6587;42.728;23.288;2024-01-30T06:59:51;97366.78;;;-0.89;60.32
13041;BME280;6587;42.728;23.288;2024-01-30T07:02:21;97375.19;;;-0.82;60.07
13041;BME280;6587;42.728;23.288;2024-01-30T07:04:47;97380.19;;;-0.65;60.28
13041;BME280;6587;42.728;23.288;2024-01-30T07:07:14;97374.75;;;-0.24;60.22
13041;BME280;6587;42.728;23.288;2024-01-30T07:09:41;97372.88;;;0.07;59.90
13041;BME280;6587;42.728;23.288;2024-01-30T07:12:08;97367.38;;;0.19;58.50
13041;BME280;6587;42.728;23.288;2024-01-30T07:14:36;97368.41;;;0.33;56.64
13041;BME280;6587;42.728;23.288;2024-01-30T07:17:03;97368.13;;;0.29;56.39
13041;BME280;6587;42.728;23.288;2024-01-30T07:19:31;97368.16;;;0.24;56.04
13041;BME280;6587;42.728;23.288;2024-01-30T07:21:58;97357.59;;;0.54;55.31
13041;BME280;6587;42.728;23.288;2024-01-30T07:24:25;97375.41;;;0.47;55.03
13041;BME280;6587;42.728;23.288;2024-01-30T07:26:52;97372.63;;;0.14;55.13
13041;BME280;6587;42.728;23.288;2024-01-30T07:29:19;97365.78;;;0.13;55.51
13041;BME280;6587;42.728;23.288;2024-01-30T07:31:48;97376.03;;;-0.06;55.69
13041;BME280;6587;42.728;23.288;2024-01-30T07:34:15;97363.75;;;0.05;55.62
13041;BME280;6587;42.728;23.288;2024-01-30T07:36:42;97365.28;;;0.00;55.39
13041;BME280;6587;42.728;23.288;2024-01-30T07:39:09;97363.22;;;-0.03;55.33
13041;BME280;6587;42.728;23.288;2024-01-30T07:41:36;97362.97;;;-0.11;55.61
13041;BME280;6587;42.728;23.288;2024-01-30T07:44:03;97361.09;;;0.10;54.69
13041;BME280;6587;42.728;23.288;2024-01-30T07:46:30;97361.09;;;0.25;54.42
13041;BME280;6587;42.728;23.288;2024-01-30T07:48:58;97357.94;;;0.28;54.64
13041;BME280;6587;42.728;23.288;2024-01-30T07:51:25;97356.84;;;0.39;53.91
13041;BME280;6587;42.728;23.288;2024-01-30T07:53:54;97359.44;;;0.49;54.01
13041;BME280;6587;42.728;23.288;2024-01-30T07:56:20;97361.00;;;0.55;53.81
13041;BME280;6587;42.728;23.288;2024-01-30T07:58:47;97356.25;;;0.67;53.53
13041;BME280;6587;42.728;23.288;2024-01-30T08:01:15;97357.53;;;0.74;53.02
13041;BME280;6587;42.728;23.288;2024-01-30T08:03:42;97366.91;;;0.90;52.64
13041;BME280;6587;42.728;23.288;2024-01-30T08:06:10;97360.28;;;1.03;52.69
13041;BME280;6587;42.728;23.288;2024-01-30T08:08:37;97362.44;;;0.91;53.19
13041;BME280;6587;42.728;23.288;2024-01-30T08:11:06;97358.22;;;0.95;53.15
13041;BME280;6587;42.728;23.288;2024-01-30T08:13:33;97362.13;;;1.02;53.19
13041;BME280;6587;42.728;23.288;2024-01-30T08:16:00;97361.19;;;1.27;52.08
13041;BME280;6587;42.728;23.288;2024-01-30T08:18:26;97361.00;;;1.13;52.52
13041;BME280;6587;42.728;23.288;2024-01-30T08:20:53;97361.81;;;1.14;52.85
13041;BME280;6587;42.728;23.288;2024-01-30T08:23:21;97362.13;;;1.46;53.02
13041;BME280;6587;42.728;23.288;2024-01-30T08:25:48;97368.88;;;1.57;52.16
13041;BME280;6587;42.728;23.288;2024-01-30T08:28:15;97370.47;;;1.53;51.94
13041;BME280;6587;42.728;23.288;2024-01-30T08:30:42;97363.03;;;1.65;51.39
13041;BME280;6587;42.728;23.288;2024-01-30T08:33:09;97372.94;;;1.78;51.34
13041;BME280;6587;42.728;23.288;2024-01-30T08:35:44;97368.72;;;1.77;51.48
13041;BME280;6587;42.728;23.288;2024-01-30T08:38:11;97375.03;;;2.10;50.94
13041;BME280;6587;42.728;23.288;2024-01-30T08:40:38;97372.34;;;2.43;50.95
13041;BME280;6587;42.728;23.288;2024-01-30T08:43:05;97379.13;;;1.92;50.74
13041;BME280;6587;42.728;23.288;2024-01-30T08:45:32;97377.66;;;1.76;50.91
13041;BME280;6587;42.728;23.288;2024-01-30T08:47:58;97376.44;;;1.63;51.70
13041;BME280;6587;42.728;23.288;2024-01-30T08:50:25;97380.97;;;1.53;52.09
13041;BME280;6587;42.728;23.288;2024-01-30T08:52:54;97374.22;;;1.42;52.58
13041;BME280;6587;42.728;23.288;2024-01-30T08:55:21;97382.13;;;1.37;52.40
13041;BME280;6587;42.728;23.288;2024-01-30T08:57:47;97387.38;;;1.37;52.89
13041;BME280;6587;42.728;23.288;2024-01-30T09:00:15;97385.25;;;1.44;52.34
13041;BME280;6587;42.728;23.288;2024-01-30T09:02:42;97381.75;;;1.10;53.15
13041;BME280;6587;42.728;23.288;2024-01-30T09:05:09;97386.41;;;1.23;53.12
13041;BME280;6587;42.728;23.288;2024-01-30T09:07:36;97393.53;;;1.61;52.99
13041;BME280;6587;42.728;23.288;2024-01-30T09:10:05;97390.28;;;2.36;51.87
13041;BME280;6587;42.728;23.288;2024-01-30T09:12:33;97389.94;;;3.13;50.17
13041;BME280;6587;42.728;23.288;2024-01-30T09:15:00;97389.59;;;3.76;49.02
13041;BME280;6587;42.728;23.288;2024-01-30T09:17:26;97386.81;;;4.18;47.56
13041;BME280;6587;42.728;23.288;2024-01-30T09:19:53;97375.56;;;4.58;47.27
13041;BME280;6587;42.728;23.288;2024-01-30T09:22:20;97385.16;;;4.22;46.73
13041;BME280;6587;42.728;23.288;2024-01-30T09:24:47;97380.78;;;3.85;47.75
13041;BME280;6587;42.728;23.288;2024-01-30T09:27:15;97382.34;;;3.68;47.11
13041;BME280;6587;42.728;23.288;2024-01-30T09:29:42;97382.41;;;3.26;47.47
13041;BME280;6587;42.728;23.288;2024-01-30T09:32:09;97381.13;;;3.42;48.38
13041;BME280;6587;42.728;23.288;2024-01-30T09:34:36;97376.03;;;4.01;47.00
13041;BME280;6587;42.728;23.288;2024-01-30T09:37:04;97379.16;;;4.35;45.62
13041;BME280;6587;42.728;23.288;2024-01-30T09:39:31;97374.00;;;4.70;45.26
13041;BME280;6587;42.728;23.288;2024-01-30T09:42:02;97366.97;;;4.93;44.75
13041;BME280;6587;42.728;23.288;2024-01-30T09:44:34;97369.63;;;4.07;45.11
13041;BME280;6587;42.728;23.288;2024-01-30T09:47:02;97365.31;;;4.83;43.92
13041;BME280;6587;42.728;23.288;2024-01-30T09:49:31;97361.28;;;5.13;43.96
13041;BME280;6587;42.728;23.288;2024-01-30T09:51:58;97360.41;;;5.53;42.90
13041;BME280;6587;42.728;23.288;2024-01-30T09:54:25;97362.91;;;6.16;43.01
13041;BME280;6587;42.728;23.288;2024-01-30T09:56:52;97358.25;;;6.91;40.04
13041;BME280;6587;42.728;23.288;2024-01-30T09:59:19;97352.25;;;6.29;40.54
13041;BME280;6587;42.728;23.288;2024-01-30T10:01:48;97344.47;;;6.02;40.64
13041;BME280;6587;42.728;23.288;2024-01-30T10:04:15;97350.81;;;5.79;41.59
13041;BME280;6587;42.728;23.288;2024-01-30T10:06:42;97347.34;;;6.14;40.91
13041;BME280;6587;42.728;23.288;2024-01-30T10:09:09;97343.25;;;6.70;40.88
13041;BME280;6587;42.728;23.288;2024-01-30T10:11:36;97341.97;;;6.67;40.46
13041;BME280;6587;42.728;23.288;2024-01-30T10:14:03;97344.59;;;7.15;39.56
13041;BME280;6587;42.728;23.288;2024-01-30T10:16:30;97349.28;;;7.18;40.13
13041;BME280;6587;42.728;23.288;2024-01-30T10:18:58;97341.69;;;7.76;38.21
13041;BME280;6587;42.728;23.288;2024-01-30T10:21:25;97347.75;;;7.17;39.19
13041;BME280;6587;42.728;23.288;2024-01-30T10:23:52;97342.81;;;6.46;39.78
13041;BME280;6587;42.728;23.288;2024-01-30T10:26:19;97338.59;;;5.83;40.31
13041;BME280;6587;42.728;23.288;2024-01-30T10:28:48;97345.75;;;5.69;41.07
13041;BME280;6587;42.728;23.288;2024-01-30T10:31:16;97340.75;;;5.46;41.17
13041;BME280;6587;42.728;23.288;2024-01-30T10:33:44;97340.72;;;5.24;41.92
13041;BME280;6587;42.728;23.288;2024-01-30T10:36:13;97344.59;;;4.77;41.82
13041;BME280;6587;42.728;23.288;2024-01-30T10:38:42;97343.00;;;4.35;43.80
13041;BME280;6587;42.728;23.288;2024-01-30T10:41:12;97345.94;;;4.34;42.88
13041;BME280;6587;42.728;23.288;2024-01-30T10:43:41;97341.00;;;4.14;43.93
13041;BME280;6587;42.728;23.288;2024-01-30T10:46:11;97337.50;;;4.18;43.99
13041;BME280;6587;42.728;23.288;2024-01-30T10:48:42;97340.63;;;3.75;44.45
13041;BME280;6587;42.728;23.288;2024-01-30T10:51:11;97327.97;;;4.22;44.44
13041;BME280;6587;42.728;23.288;2024-01-30T10:53:41;97328.38;;;4.43;44.23
13041;BME280;6587;42.728;23.288;2024-01-30T10:56:10;97322.75;;;5.12;43.31
13041;BME280;6587;42.728;23.288;2024-01-30T10:58:38;97322.38;;;6.29;41.06
13041;BME280;6587;42.728;23.288;2024-01-30T11:01:06;97316.06;;;7.03;41.28
13041;BME280;6587;42.728;23.288;2024-01-30T11:03:35;97318.75;;;7.29;40.00
13041;BME280;6587;42.728;23.288;2024-01-30T11:06:03;97312.91;;;8.29;38.82
13041;BME280;6587;42.728;23.288;2024-01-30T11:08:32;97304.16;;;9.45;36.73
13041;BME280;6587;42.728;23.288;2024-01-30T11:11:00;97296.75;;;9.09;35.34
13041;BME280;6587;42.728;23.288;2024-01-30T11:13:27;97301.47;;;7.40;37.09
13041;BME280;6587;42.728;23.288;2024-01-30T11:15:55;97300.34;;;6.11;39.29
13041;BME280;6587;42.728;23.288;2024-01-30T11:18:25;97296.41;;;6.70;39.59
13041;BME280;6587;42.728;23.288;2024-01-30T11:20:52;97293.72;;;8.32;38.06
13041;BME280;6587;42.728;23.288;2024-01-30T11:23:22;97291.47;;;7.71;37.28
13041;BME280;6587;42.728;23.288;2024-01-30T11:25:49;97296.00;;;6.15;39.66
13041;BME280;6587;42.728;23.288;2024-01-30T11:28:21;97301.31;;;7.28;38.77
13041;BME280;6587;42.728;23.288;2024-01-30T11:30:48;97287.31;;;9.20;36.50
13041;BME280;6587;42.728;23.288;2024-01-30T11:33:27;97294.41;;;10.35;34.80
13041;BME280;6587;42.728;23.288;2024-01-30T11:35:57;97294.88;;;9.72;33.92
13041;BME280;6587;42.728;23.288;2024-01-30T11:38:25;97291.09;;;10.38;33.92
13041;BME280;6587;42.728;23.288;2024-01-30T11:40:54;97286.47;;;9.28;34.41
13041;BME280;6587;42.728;23.288;2024-01-30T11:43:23;97285.72;;;9.19;36.25
13041;BME280;6587;42.728;23.288;2024-01-30T11:45:51;97288.22;;;9.45;35.24
13041;BME280;6587;42.728;23.288;2024-01-30T11:48:18;97290.13;;;12.40;31.96
13041;BME280;6587;42.728;23.288;2024-01-30T11:50:45;97285.06;;;11.92;30.73
13041;BME280;6587;42.728;23.288;2024-01-30T11:53:12;97285.66;;;13.26;29.54
13041;BME280;6587;42.728;23.288;2024-01-30T11:55:39;97276.75;;;13.37;29.76
13041;BME280;6587;42.728;23.288;2024-01-30T11:58:06;97288.75;;;14.23;28.59
13041;BME280;6587;42.728;23.288;2024-01-30T12:00:34;97282.16;;;16.40;26.17
13041;BME280;6587;42.728;23.288;2024-01-30T12:03:01;97266.69;;;17.24;24.08
13041;BME280;6587;42.728;23.288;2024-01-30T12:05:28;97270.59;;;15.62;25.28
13041;BME280;6587;42.728;23.288;2024-01-30T12:07:55;97275.44;;;16.20;25.66
13041;BME280;6587;42.728;23.288;2024-01-30T12:10:24;97260.78;;;16.54;24.73
13041;BME280;6587;42.728;23.288;2024-01-30T12:12:53;97259.53;;;15.38;25.64
13041;BME280;6587;42.728;23.288;2024-01-30T12:15:22;97252.50;;;16.69;24.35
13041;BME280;6587;42.728;23.288;2024-01-30T12:17:50;97246.28;;;16.65;24.31
13041;BME280;6587;42.728;23.288;2024-01-30T12:20:19;97250.56;;;16.70;24.57
13041;BME280;6587;42.728;23.288;2024-01-30T12:22:47;97244.84;;;15.95;24.92
13041;BME280;6587;42.728;23.288;2024-01-30T12:25:16;97248.63;;;15.27;25.71
13041;BME280;6587;42.728;23.288;2024-01-30T12:27:43;97237.00;;;15.79;25.67
13041;BME280;6587;42.728;23.288;2024-01-30T12:30:11;97236.53;;;14.85;25.84
13041;BME280;6587;42.728;23.288;2024-01-30T12:32:40;97233.00;;;13.49;28.13
13041;BME280;6587;42.728;23.288;2024-01-30T12:35:09;97238.56;;;14.20;27.06
13041;BME280;6587;42.728;23.288;2024-01-30T12:37:38;97237.06;;;14.94;26.16
13041;BME280;6587;42.728;23.288;2024-01-30T12:40:05;97234.16;;;15.35;26.24
13041;BME280;6587;42.728;23.288;2024-01-30T12:42:33;97236.72;;;14.47;26.25
13041;BME280;6587;42.728;23.288;2024-01-30T12:45:02;97235.53;;;15.22;25.40
13041;BME280;6587;42.728;23.288;2024-01-30T12:47:29;97237.69;;;15.73;25.07
13041;BME280;6587;42.728;23.288;2024-01-30T12:49:56;97232.75;;;15.15;26.31
13041;BME280;6587;42.728;23.288;2024-01-30T12:52:24;97226.25;;;14.15;26.89
13041;BME280;6587;42.728;23.288;2024-01-30T12:54:52;97227.16;;;14.98;26.30
13041;BME280;6587;42.728;23.288;2024-01-30T12:57:19;97219.78;;;14.39;26.12
13041;BME280;6587;42.728;23.288;2024-01-30T12:59:46;97208.09;;;13.64;26.69
13041;BME280;6587;42.728;23.288;2024-01-30T13:02:14;97212.84;;;15.46;26.47
13041;BME280;6587;42.728;23.288;2024-01-30T13:04:42;97212.63;;;15.28;25.62
13041;BME280;6587;42.728;23.288;2024-01-30T13:07:09;97200.78;;;12.88;27.75
13041;BME280;6587;42.728;23.288;2024-01-30T13:09:37;97201.47;;;13.01;28.50